sensor_id;sensor_type;location;lat;lon;timestamp;pressure;altitude;pressure_sealevel;temperature;humidity
73101;BME280;61288;53.446;-2.266;2024-03-23T00:55:44;101721.50;;;4.59;100.00
73101;BME280;61288;53.446;-2.266;2024-03-23T00:58:09;101730.91;;;4.54;100.00
73101;BME280;61288;53.446;-2.266;2024-03-23T01:00:35;101715.50;;;4.49;100.00
73101;BME280;61288;53.446;-2.266;2024-03-23T01:03:05;101718.03;;;4.43;100.00
73101;BME280;61288;53.446;-2.266;2024-03-23T01:05:30;101712.06;;;4.38;100.00
73101;BME280;61288;53.446;-2.266;2024-03-23T01:07:56;101711.22;;;4.34;100.00
73101;BME280;61288;53.446;-2.266;2024-03-23T01:10:21;101707.78;;;4.33;100.00
73101;BME280;61288;53.446;-2.266;2024-03-23T01:12:47;101706.09;;;4.34;100.00
73101;BME280;61288;53.446;-2.266;2024-03-23T01:15:12;101711.19;;;4.39;100.00
73101;BME280;61288;53.446;-2.266;2024-03-23T01:17:38;101701.81;;;4.39;100.00
73101;BME280;61288;53.446;-2.266;2024-03-23T01:20:03;101701.78;;;4.38;100.00
73101;BME280;61288;53.446;-2.266;2024-03-23T01:22:29;101706.09;;;4.37;100.00
73101;BME280;61288;53.446;-2.266;2024-03-23T01:24:55;101706.91;;;4.38;100.00
73101;BME280;61288;53.446;-2.266;2024-03-23T01:27:20;101706.06;;;4.39;100.00
73101;BME280;61288;53.446;-2.266;2024-03-23T01:29:45;101705.22;;;4.43;100.00
73101;BME280;61288;53.446;-2.266;2024-03-23T01:32:11;101707.78;;;4.46;100.00
73101;BME280;61288;53.446;-2.266;2024-03-23T01:34:36;101706.09;;;4.50;100.00
73101;BME280;61288;53.446;-2.266;2024-03-23T01:37:02;101706.97;;;4.50;100.00
73101;BME280;61288;53.446;-2.266;2024-03-23T01:39:27;101707.81;;;4.54;100.00
73101;BME280;61288;53.446;-2.266;2024-03-23T01:41:53;101704.38;;;4.59;100.00
73101;BME280;61288;53.446;-2.266;2024-03-23T01:44:18;101693.25;;;4.59;100.00
73101;BME280;61288;53.446;-2.266;2024-03-23T01:46:44;101688.13;;;4.62;100.00
73101;BME280;61288;53.446;-2.266;2024-03-23T01:49:10;101694.13;;;4.64;100.00
73101;BME280;61288;53.446;-2.266;2024-03-23T01:51:36;101687.28;;;4.65;100.00
73101;BME280;61288;53.446;-2.266;2024-03-23T01:54:03;101686.41;;;4.66;100.00
73101;BME280;61288;53.446;-2.266;2024-03-23T01:56:33;101692.44;;;4.66;100.00
73101;BME280;61288;53.446;-2.266;2024-03-23T01:59:03;101677.03;;;4.66;100.00
73101;BME280;61288;53.446;-2.266;2024-03-23T02:01:29;101687.28;;;4.68;100.00
73101;BME280;61288;53.446;-2.266;2024-03-23T02:03:55;101683.84;;;4.69;100.00
73101;BME280;61288;53.446;-2.266;2024-03-23T02:06:20;101697.56;;;4.72;100.00
73101;BME280;61288;53.446;-2.266;2024-03-23T02:08:46;101688.13;;;4.74;100.00
73101;BME280;61288;53.446;-2.266;2024-03-23T02:11:12;101687.25;;;4.74;100.00
73101;BME280;61288;53.446;-2.266;2024-03-23T02:13:37;101701.81;;;4.75;100.00
73101;BME280;61288;53.446;-2.266;2024-03-23T02:16:05;101695.84;;;4.74;100.00
73101;BME280;61288;53.446;-2.266;2024-03-23T02:18:30;101706.94;;;4.75;100.00
73101;BME280;61288;53.446;-2.266;2024-03-23T02:20:56;101700.09;;;4.74;100.00
73101;BME280;61288;53.446;-2.266;2024-03-23T02:23:21;101708.69;;;4.71;100.00
73101;BME280;61288;53.446;-2.266;2024-03-23T02:25:46;101706.13;;;4.71;100.00
73101;BME280;61288;53.446;-2.266;2024-03-23T02:28:12;101696.69;;;4.69;100.00
73101;BME280;61288;53.446;-2.266;2024-03-23T02:30:38;101692.41;;;4.68;100.00
73101;BME280;61288;53.446;-2.266;2024-03-23T02:33:04;101696.69;;;4.67;100.00
73101;BME280;61288;53.446;-2.266;2024-03-23T02:35:29;101678.72;;;4.66;100.00
73101;BME280;61288;53.446;-2.266;2024-03-23T02:37:55;101689.00;;;4.66;100.00
73101;BME280;61288;53.446;-2.266;2024-03-23T02:40:23;101679.59;;;4.66;100.00
73101;BME280;61288;53.446;-2.266;2024-03-23T02:42:49;101686.44;;;4.64;100.00
73101;BME280;61288;53.446;-2.266;2024-03-23T02:45:17;101678.72;;;4.66;100.00
73101;BME280;61288;53.446;-2.266;2024-03-23T02:47:43;101666.75;;;4.65;100.00
73101;BME280;61288;53.446;-2.266;2024-03-23T02:50:08;101671.88;;;4.65;100.00
73101;BME280;61288;53.446;-2.266;2024-03-23T02:52:37;101660.75;;;4.64;100.00
73101;BME280;61288;53.446;-2.266;2024-03-23T02:55:03;101658.19;;;4.64;100.00
73101;BME280;61288;53.446;-2.266;2024-03-23T02:57:29;101656.44;;;4.63;100.00
73101;BME280;61288;53.446;-2.266;2024-03-23T02:59:55;101650.47;;;4.61;100.00
73101;BME280;61288;53.446;-2.266;2024-03-23T03:02:21;101644.50;;;4.57;100.00
73101;BME280;61288;53.446;-2.266;2024-03-23T03:04:46;101635.94;;;4.57;100.00
73101;BME280;61288;53.446;-2.266;2024-03-23T03:07:12;101638.50;;;4.58;100.00
73101;BME280;61288;53.446;-2.266;2024-03-23T03:09:38;101627.38;;;4.58;100.00
73101;BME280;61288;53.446;-2.266;2024-03-23T03:12:05;101629.94;;;4.61;100.00
73101;BME280;61288;53.446;-2.266;2024-03-23T03:14:31;101623.09;;;4.60;100.00
73101;BME280;61288;53.446;-2.266;2024-03-23T03:16:56;101622.22;;;4.61;100.00
73101;BME280;61288;53.446;-2.266;2024-03-23T03:19:21;101615.41;;;4.61;100.00
73101;BME280;61288;53.446;-2.266;2024-03-23T03:21:47;101623.94;;;4.63;100.00
73101;BME280;61288;53.446;-2.266;2024-03-23T03:24:15;101612.81;;;4.65;100.00
73101;BME280;61288;53.446;-2.266;2024-03-23T03:26:42;101606.00;;;4.65;100.00
73101;BME280;61288;53.446;-2.266;2024-03-23T03:29:07;101596.56;;;4.62;100.00
73101;BME280;61288;53.446;-2.266;2024-03-23T03:31:33;101591.44;;;4.61;100.00
73101;BME280;61288;53.446;-2.266;2024-03-23T03:33:58;101590.56;;;4.62;100.00
73101;BME280;61288;53.446;-2.266;2024-03-23T03:36:24;101596.56;;;4.59;100.00
73101;BME280;61288;53.446;-2.266;2024-03-23T03:38:49;101594.88;;;4.58;100.00
73101;BME280;61288;53.446;-2.266;2024-03-23T03:41:15;101597.41;;;4.60;100.00
73101;BME280;61288;53.446;-2.266;2024-03-23T03:43:41;101594.84;;;4.57;100.00
73101;BME280;61288;53.446;-2.266;2024-03-23T03:46:06;101592.31;;;4.58;100.00
73101;BME280;61288;53.446;-2.266;2024-03-23T03:48:33;101581.16;;;4.58;100.00
73101;BME280;61288;53.446;-2.266;2024-03-23T03:51:00;101582.88;;;4.60;100.00
73101;BME280;61288;53.446;-2.266;2024-03-23T03:53:25;101570.91;;;4.59;100.00
73101;BME280;61288;53.446;-2.266;2024-03-23T03:55:51;101566.66;;;4.55;100.00
73101;BME280;61288;53.446;-2.266;2024-03-23T03:58:17;101565.78;;;4.50;100.00
73101;BME280;61288;53.446;-2.266;2024-03-23T04:00:44;101568.34;;;4.44;100.00
73101;BME280;61288;53.446;-2.266;2024-03-23T04:03:10;101567.50;;;4.42;100.00
73101;BME280;61288;53.446;-2.266;2024-03-23T04:05:36;101570.91;;;4.41;100.00
73101;BME280;61288;53.446;-2.266;2024-03-23T04:08:07;101578.63;;;4.41;100.00
73101;BME280;61288;53.446;-2.266;2024-03-23T04:10:33;101581.22;;;4.33;100.00
73101;BME280;61288;53.446;-2.266;2024-03-23T04:12:59;101582.91;;;4.26;100.00
73101;BME280;61288;53.446;-2.266;2024-03-23T04:15:24;101576.06;;;4.19;100.00
73101;BME280;61288;53.446;-2.266;2024-03-23T04:17:50;101577.78;;;4.18;100.00
73101;BME280;61288;53.446;-2.266;2024-03-23T04:20:16;101575.22;;;4.15;100.00
73101;BME280;61288;53.446;-2.266;2024-03-23T04:22:42;101564.09;;;4.13;100.00
73101;BME280;61288;53.446;-2.266;2024-03-23T04:25:08;101562.38;;;4.08;100.00
73101;BME280;61288;53.446;-2.266;2024-03-23T04:27:36;101563.25;;;4.05;100.00
73101;BME280;61288;53.446;-2.266;2024-03-23T04:30:02;101558.97;;;4.04;100.00
73101;BME280;61288;53.446;-2.266;2024-03-23T04:32:29;101558.09;;;4.07;100.00
73101;BME280;61288;53.446;-2.266;2024-03-23T04:34:54;101551.25;;;4.05;100.00
73101;BME280;61288;53.446;-2.266;2024-03-23T04:37:21;101541.03;;;4.01;100.00
73101;BME280;61288;53.446;-2.266;2024-03-23T04:39:48;101533.31;;;4.01;100.00
73101;BME280;61288;53.446;-2.266;2024-03-23T04:42:16;101534.16;;;3.98;100.00
73101;BME280;61288;53.446;-2.266;2024-03-23T04:44:42;101533.28;;;3.95;100.00
73101;BME280;61288;53.446;-2.266;2024-03-23T04:47:08;101519.63;;;3.91;100.00
73101;BME280;61288;53.446;-2.266;2024-03-23T04:49:33;101519.63;;;3.86;100.00
73101;BME280;61288;53.446;-2.266;2024-03-23T04:52:05;101511.09;;;3.86;100.00
73101;BME280;61288;53.446;-2.266;2024-03-23T04:54:31;101505.94;;;3.84;100.00
73101;BME280;61288;53.446;-2.266;2024-03-23T04:57:00;101515.34;;;3.81;100.00
73101;BME280;61288;53.446;-2.266;2024-03-23T04:59:26;101505.09;;;3.79;100.00
73101;BME280;61288;53.446;-2.266;2024-03-23T05:01:51;101503.38;;;3.84;100.00
73101;BME280;61288;53.446;-2.266;2024-03-23T05:04:17;101509.38;;;3.88;100.00
73101;BME280;61288;53.446;-2.266;2024-03-23T05:06:42;101499.13;;;3.91;100.00
73101;BME280;61288;53.446;-2.266;2024-03-23T05:09:08;101501.66;;;3.93;100.00
73101;BME280;61288;53.446;-2.266;2024-03-23T05:11:38;101487.16;;;3.93;100.00
73101;BME280;61288;53.446;-2.266;2024-03-23T05:14:06;101484.59;;;3.90;100.00
73101;BME280;61288;53.446;-2.266;2024-03-23T05:16:31;101479.47;;;3.87;100.00
73101;BME280;61288;53.446;-2.266;2024-03-23T05:18:57;101454.69;;;3.81;100.00
73101;BME280;61288;53.446;-2.266;2024-03-23T05:21:22;101441.00;;;3.74;100.00
73101;BME280;61288;53.446;-2.266;2024-03-23T05:23:48;101442.72;;;3.68;100.00
73101;BME280;61288;53.446;-2.266;2024-03-23T05:26:14;101444.41;;;3.63;100.00
73101;BME280;61288;53.446;-2.266;2024-03-23T05:28:39;101444.44;;;3.64;100.00
73101;BME280;61288;53.446;-2.266;2024-03-23T05:31:05;101450.41;;;3.66;100.00
73101;BME280;61288;53.446;-2.266;2024-03-23T05:33:31;101447.00;;;3.67;100.00
73101;BME280;61288;53.446;-2.266;2024-03-23T05:35:57;101451.25;;;3.68;100.00
73101;BME280;61288;53.446;-2.266;2024-03-23T05:38:23;101462.38;;;3.66;100.00
73101;BME280;61288;53.446;-2.266;2024-03-23T05:40:59;101457.25;;;3.61;100.00
73101;BME280;61288;53.446;-2.266;2024-03-23T05:43:26;101463.22;;;3.55;100.00
73101;BME280;61288;53.446;-2.266;2024-03-23T05:48:19;101470.03;;;3.53;100.00
73101;BME280;61288;53.446;-2.266;2024-03-23T05:50:45;101486.28;;;3.58;100.00
73101;BME280;61288;53.446;-2.266;2024-03-23T05:53:15;101487.13;;;3.60;100.00
73101;BME280;61288;53.446;-2.266;2024-03-23T05:55:40;101474.31;;;3.57;100.00
73101;BME280;61288;53.446;-2.266;2024-03-23T05:58:06;101477.72;;;3.53;100.00
73101;BME280;61288;53.446;-2.266;2024-03-23T06:00:31;101476.88;;;3.51;100.00
73101;BME280;61288;53.446;-2.266;2024-03-23T06:02:57;101469.19;;;3.51;100.00
73101;BME280;61288;53.446;-2.266;2024-03-23T06:05:23;101466.59;;;3.46;100.00
73101;BME280;61288;53.446;-2.266;2024-03-23T06:07:49;101459.78;;;3.42;100.00
73101;BME280;61288;53.446;-2.266;2024-03-23T06:10:16;101464.06;;;3.36;100.00
73101;BME280;61288;53.446;-2.266;2024-03-23T06:12:43;101459.78;;;3.31;100.00
73101;BME280;61288;53.446;-2.266;2024-03-23T06:15:11;101460.63;;;3.32;100.00
73101;BME280;61288;53.446;-2.266;2024-03-23T06:17:37;101471.72;;;3.37;100.00
73101;BME280;61288;53.446;-2.266;2024-03-23T06:20:03;101463.19;;;3.43;100.00
73101;BME280;61288;53.446;-2.266;2024-03-23T06:22:29;101454.66;;;3.47;100.00
73101;BME280;61288;53.446;-2.266;2024-03-23T06:24:55;101453.81;;;3.51;100.00
73101;BME280;61288;53.446;-2.266;2024-03-23T06:27:20;101457.25;;;3.55;100.00
73101;BME280;61288;53.446;-2.266;2024-03-23T06:29:45;101446.13;;;3.60;100.00
73101;BME280;61288;53.446;-2.266;2024-03-23T06:32:11;101446.13;;;3.65;100.00
73101;BME280;61288;53.446;-2.266;2024-03-23T06:34:36;101452.13;;;3.69;100.00
73101;BME280;61288;53.446;-2.266;2024-03-23T06:37:02;101459.81;;;3.66;100.00
73101;BME280;61288;53.446;-2.266;2024-03-23T06:39:28;101451.25;;;3.64;100.00
73101;BME280;61288;53.446;-2.266;2024-03-23T06:41:54;101453.81;;;3.59;100.00
73101;BME280;61288;53.446;-2.266;2024-03-23T06:44:20;101446.97;;;3.56;100.00
73101;BME280;61288;53.446;-2.266;2024-03-23T06:46:47;101462.38;;;3.55;100.00
73101;BME280;61288;53.446;-2.266;2024-03-23T06:49:14;101457.22;;;3.50;100.00
73101;BME280;61288;53.446;-2.266;2024-03-23T06:51:41;101461.50;;;3.50;100.00
73101;BME280;61288;53.446;-2.266;2024-03-23T06:54:09;101452.13;;;3.52;100.00
73101;BME280;61288;53.446;-2.266;2024-03-23T06:56:34;101448.69;;;3.57;100.00
73101;BME280;61288;53.446;-2.266;2024-03-23T06:59:00;101446.13;;;3.64;100.00
73101;BME280;61288;53.446;-2.266;2024-03-23T07:01:25;101460.66;;;3.83;100.00
73101;BME280;61288;53.446;-2.266;2024-03-23T07:03:53;101464.94;;;3.98;100.00
73101;BME280;61288;53.446;-2.266;2024-03-23T07:06:19;101449.53;;;3.98;100.00
73101;BME280;61288;53.446;-2.266;2024-03-23T07:08:45;101456.38;;;3.92;100.00
73101;BME280;61288;53.446;-2.266;2024-03-23T07:11:11;101457.25;;;3.89;100.00
73101;BME280;61288;53.446;-2.266;2024-03-23T07:13:36;101464.94;;;3.89;100.00
73101;BME280;61288;53.446;-2.266;2024-03-23T07:16:02;101464.94;;;3.95;100.00
73101;BME280;61288;53.446;-2.266;2024-03-23T07:18:28;101449.56;;;4.00;100.00
73101;BME280;61288;53.446;-2.266;2024-03-23T07:21:00;101449.53;;;4.04;100.00
73101;BME280;61288;53.446;-2.266;2024-03-23T07:23:25;101447.81;;;4.10;100.00
73101;BME280;61288;53.446;-2.266;2024-03-23T07:25:58;101450.38;;;4.16;100.00
73101;BME280;61288;53.446;-2.266;2024-03-23T07:28:27;101437.56;;;4.19;100.00
73101;BME280;61288;53.446;-2.266;2024-03-23T07:33:28;101438.41;;;4.18;100.00
73101;BME280;61288;53.446;-2.266;2024-03-23T07:35:54;101436.69;;;4.15;100.00
73101;BME280;61288;53.446;-2.266;2024-03-23T07:38:19;101428.16;;;4.13;100.00
73101;BME280;61288;53.446;-2.266;2024-03-23T07:40:45;101437.56;;;4.19;100.00
73101;BME280;61288;53.446;-2.266;2024-03-23T07:43:10;101451.19;;;4.30;100.00
73101;BME280;61288;53.446;-2.266;2024-03-23T07:45:38;101468.28;;;4.27;100.00
73101;BME280;61288;53.446;-2.266;2024-03-23T07:48:04;101454.66;;;4.20;100.00
73101;BME280;61288;53.446;-2.266;2024-03-23T07:50:30;101464.91;;;4.12;100.00
73101;BME280;61288;53.446;-2.266;2024-03-23T07:52:55;101457.22;;;4.09;100.00
73101;BME280;61288;53.446;-2.266;2024-03-23T07:55:21;101469.16;;;4.26;100.00
73101;BME280;61288;53.446;-2.266;2024-03-23T07:57:51;101464.00;;;4.43;100.00
73101;BME280;61288;53.446;-2.266;2024-03-23T08:00:16;101469.09;;;4.61;100.00
73101;BME280;61288;53.446;-2.266;2024-03-23T08:02:45;101472.38;;;4.93;100.00
73101;BME280;61288;53.446;-2.266;2024-03-23T08:05:10;101452.59;;;5.11;100.00
73101;BME280;61288;53.446;-2.266;2024-03-23T08:07:35;101454.28;;;5.19;100.00
73101;BME280;61288;53.446;-2.266;2024-03-23T08:10:01;101455.88;;;5.38;100.00
73101;BME280;61288;53.446;-2.266;2024-03-23T08:12:28;101461.72;;;5.57;100.00
73101;BME280;61288;53.446;-2.266;2024-03-23T08:14:54;101462.50;;;5.68;100.00
73101;BME280;61288;53.446;-2.266;2024-03-23T08:17:19;101464.19;;;5.69;100.00
73101;BME280;61288;53.446;-2.266;2024-03-23T08:19:45;101477.91;;;5.68;100.00
73101;BME280;61288;53.446;-2.266;2024-03-23T08:22:10;101482.31;;;5.54;100.00
73101;BME280;61288;53.446;-2.266;2024-03-23T08:24:36;101480.72;;;5.35;100.00
73101;BME280;61288;53.446;-2.266;2024-03-23T08:27:01;101499.69;;;5.17;100.00
73101;BME280;61288;53.446;-2.266;2024-03-23T08:29:29;101503.09;;;5.19;100.00
73101;BME280;61288;53.446;-2.266;2024-03-23T08:31:55;101503.59;;;5.76;100.00
73101;BME280;61288;53.446;-2.266;2024-03-23T08:34:20;101501.78;;;5.89;100.00
73101;BME280;61288;53.446;-2.266;2024-03-23T08:36:46;101500.09;;;5.85;100.00
73101;BME280;61288;53.446;-2.266;2024-03-23T08:39:11;101495.09;;;5.61;100.00
73101;BME280;61288;53.446;-2.266;2024-03-23T08:41:36;101505.88;;;6.15;100.00
73101;BME280;61288;53.446;-2.266;2024-03-23T08:44:02;101502.34;;;7.02;100.00
73101;BME280;61288;53.446;-2.266;2024-03-23T08:46:29;101502.88;;;7.87;100.00
73101;BME280;61288;53.446;-2.266;2024-03-23T08:48:55;101503.06;;;8.24;100.00
73101;BME280;61288;53.446;-2.266;2024-03-23T08:51:20;101506.75;;;8.11;100.00
73101;BME280;61288;53.446;-2.266;2024-03-23T08:53:46;101531.38;;;7.79;100.00
73101;BME280;61288;53.446;-2.266;2024-03-23T08:56:11;101552.69;;;7.31;100.00
73101;BME280;61288;53.446;-2.266;2024-03-23T08:58:38;101558.22;;;7.01;100.00
73101;BME280;61288;53.446;-2.266;2024-03-23T09:03:32;101544.94;;;6.57;100.00
73101;BME280;61288;53.446;-2.266;2024-03-23T09:05:59;101544.09;;;6.55;100.00
73101;BME280;61288;53.446;-2.266;2024-03-23T09:08:25;101528.50;;;6.69;100.00
73101;BME280;61288;53.446;-2.266;2024-03-23T09:10:51;101520.91;;;6.58;100.00
73101;BME280;61288;53.446;-2.266;2024-03-23T09:13:17;101521.50;;;6.82;100.00
73101;BME280;61288;53.446;-2.266;2024-03-23T09:15:52;101525.41;;;7.75;100.00
73101;BME280;61288;53.446;-2.266;2024-03-23T09:18:21;101528.34;;;8.07;100.00
73101;BME280;61288;53.446;-2.266;2024-03-23T09:20:47;101541.53;;;7.90;100.00
73101;BME280;61288;53.446;-2.266;2024-03-23T09:23:13;101565.53;;;7.95;100.00
73101;BME280;61288;53.446;-2.266;2024-03-23T09:25:39;101568.16;;;7.90;100.00
73101;BME280;61288;53.446;-2.266;2024-03-23T09:28:06;101572.44;;;7.93;100.00
73101;BME280;61288;53.446;-2.266;2024-03-23T09:30:35;101587.41;;;8.26;100.00
73101;BME280;61288;53.446;-2.266;2024-03-23T09:33:00;101576.06;;;8.36;100.00
73101;BME280;61288;53.446;-2.266;2024-03-23T09:35:26;101594.44;;;8.17;100.00
73101;BME280;61288;53.446;-2.266;2024-03-23T09:37:55;101617.34;;;7.83;100.00
73101;BME280;61288;53.446;-2.266;2024-03-23T09:40:24;101607.53;;;7.44;100.00
73101;BME280;61288;53.446;-2.266;2024-03-23T09:42:52;101588.47;;;7.56;100.00
73101;BME280;61288;53.446;-2.266;2024-03-23T09:45:21;101575.19;;;7.84;100.00
73101;BME280;61288;53.446;-2.266;2024-03-23T09:47:47;101574.00;;;8.03;100.00
73101;BME280;61288;53.446;-2.266;2024-03-23T09:50:13;101573.16;;;8.01;100.00
73101;BME280;61288;53.446;-2.266;2024-03-23T09:52:39;101570.19;;;8.26;100.00
73101;BME280;61288;53.446;-2.266;2024-03-23T09:55:08;101585.31;;;8.51;100.00
73101;BME280;61288;53.446;-2.266;2024-03-23T09:57:36;101607.44;;;8.66;100.00
73101;BME280;61288;53.446;-2.266;2024-03-23T10:00:05;101616.44;;;8.40;100.00
73101;BME280;61288;53.446;-2.266;2024-03-23T10:02:31;101627.00;;;8.79;100.00
73101;BME280;61288;53.446;-2.266;2024-03-23T10:04:58;101637.63;;;8.64;100.00
73101;BME280;61288;53.446;-2.266;2024-03-23T10:07:23;101646.63;;;8.90;100.00
73101;BME280;61288;53.446;-2.266;2024-03-23T10:09:49;101674.31;;;9.30;100.00
73101;BME280;61288;53.446;-2.266;2024-03-23T10:12:21;101670.13;;;9.24;100.00
73101;BME280;61288;53.446;-2.266;2024-03-23T10:14:46;101649.72;;;8.59;100.00
73101;BME280;61288;53.446;-2.266;2024-03-23T10:17:15;101617.03;;;8.01;100.00
73101;BME280;61288;53.446;-2.266;2024-03-23T10:19:43;101583.25;;;7.59;100.00
73101;BME280;61288;53.446;-2.266;2024-03-23T10:22:14;101554.34;;;7.35;100.00
73101;BME280;61288;53.446;-2.266;2024-03-23T10:24:42;101544.72;;;6.76;100.00
73101;BME280;61288;53.446;-2.266;2024-03-23T10:27:08;101541.53;;;6.54;100.00
73101;BME280;61288;53.446;-2.266;2024-03-23T10:29:34;101542.75;;;7.01;100.00
73101;BME280;61288;53.446;-2.266;2024-03-23T10:32:10;101516.06;;;7.05;100.00
73101;BME280;61288;53.446;-2.266;2024-03-23T10:34:36;101522.81;;;7.16;100.00
73101;BME280;61288;53.446;-2.266;2024-03-23T10:37:03;101538.38;;;7.06;100.00
73101;BME280;61288;53.446;-2.266;2024-03-23T10:39:33;101526.59;;;7.53;100.00
73101;BME280;61288;53.446;-2.266;2024-03-23T10:42:02;101533.31;;;7.64;100.00
73101;BME280;61288;53.446;-2.266;2024-03-23T10:44:30;101548.22;;;7.42;100.00
73101;BME280;61288;53.446;-2.266;2024-03-23T10:46:58;101563.09;;;7.23;100.00
73101;BME280;61288;53.446;-2.266;2024-03-23T10:49:29;101578.84;;;7.00;100.00
73101;BME280;61288;53.446;-2.266;2024-03-23T10:52:01;101574.47;;;7.05;100.00
73101;BME280;61288;53.446;-2.266;2024-03-23T10:54:30;101552.00;;;7.80;100.00
73101;BME280;61288;53.446;-2.266;2024-03-23T10:57:09;101574.88;;;8.56;100.00
73101;BME280;61288;53.446;-2.266;2024-03-23T10:59:37;101620.22;;;9.19;100.00
73101;BME280;61288;53.446;-2.266;2024-03-23T11:02:06;101672.69;;;9.68;100.00
73101;BME280;61288;53.446;-2.266;2024-03-23T11:04:37;101716.47;;;9.35;100.00
73101;BME280;61288;53.446;-2.266;2024-03-23T11:09:51;101730.72;;;7.93;100.00
73101;BME280;61288;53.446;-2.266;2024-03-23T11:12:27;101682.16;;;8.22;100.00
73101;BME280;61288;53.446;-2.266;2024-03-23T11:15:00;101654.53;;;8.80;100.00
73101;BME280;61288;53.446;-2.266;2024-03-23T11:17:27;101662.28;;;9.28;100.00
73101;BME280;61288;53.446;-2.266;2024-03-23T11:20:02;101659.44;;;9.82;100.00
73101;BME280;61288;53.446;-2.266;2024-03-23T11:22:38;101670.66;;;10.59;100.00
73101;BME280;61288;53.446;-2.266;2024-03-23T11:25:23;101700.94;;;10.91;100.00
73101;BME280;61288;53.446;-2.266;2024-03-23T11:27:53;101750.13;;;10.96;100.00
73101;BME280;61288;53.446;-2.266;2024-03-23T11:30:20;101789.28;;;10.83;100.00
73101;BME280;61288;53.446;-2.266;2024-03-23T11:32:48;101782.44;;;11.17;100.00
73101;BME280;61288;53.446;-2.266;2024-03-23T11:35:37;101800.47;;;10.86;100.00
73101;BME280;61288;53.446;-2.266;2024-03-23T11:38:10;101818.34;;;10.62;100.00
73101;BME280;61288;53.446;-2.266;2024-03-23T11:40:44;101781.75;;;9.48;100.00
73101;BME280;61288;53.446;-2.266;2024-03-23T11:43:14;101711.97;;;8.43;100.00
73101;BME280;61288;53.446;-2.266;2024-03-23T11:48:14;101595.75;;;7.87;100.00
73101;BME280;61288;53.446;-2.266;2024-03-23T11:50:41;101549.34;;;7.85;100.00
73101;BME280;61288;53.446;-2.266;2024-03-23T11:55:52;101554.56;;;8.84;100.00
73101;BME280;61288;53.446;-2.266;2024-03-23T11:58:22;101529.47;;;8.89;100.00
73101;BME280;61288;53.446;-2.266;2024-03-23T12:01:02;101561.38;;;8.88;100.00
73101;BME280;61288;53.446;-2.266;2024-03-23T12:03:29;101561.97;;;9.42;100.00
73101;BME280;61288;53.446;-2.266;2024-03-23T12:05:57;101569.09;;;9.72;100.00
73101;BME280;61288;53.446;-2.266;2024-03-23T12:08:29;101608.50;;;10.21;100.00
73101;BME280;61288;53.446;-2.266;2024-03-23T12:11:17;101625.75;;;10.58;100.00
73101;BME280;61288;53.446;-2.266;2024-03-23T12:13:44;101653.72;;;11.13;100.00
73101;BME280;61288;53.446;-2.266;2024-03-23T12:18:38;101750.22;;;10.55;100.00
73101;BME280;61288;53.446;-2.266;2024-03-23T12:21:05;101745.19;;;10.49;100.00
73101;BME280;61288;53.446;-2.266;2024-03-23T12:23:31;101740.84;;;10.86;100.00
73101;BME280;61288;53.446;-2.266;2024-03-23T12:26:01;101732.97;;;10.89;100.00
73101;BME280;61288;53.446;-2.266;2024-03-23T12:28:27;101766.03;;;10.80;100.00
73101;BME280;61288;53.446;-2.266;2024-03-23T12:30:52;101750.53;;;10.39;100.00
73101;BME280;61288;53.446;-2.266;2024-03-23T12:33:19;101750.09;;;10.20;100.00
73101;BME280;61288;53.446;-2.266;2024-03-23T12:35:46;101722.97;;;10.37;100.00
73101;BME280;61288;53.446;-2.266;2024-03-23T12:38:12;101747.88;;;10.82;100.00
73101;BME280;61288;53.446;-2.266;2024-03-23T12:40:37;101757.19;;;10.53;100.00
73101;BME280;61288;53.446;-2.266;2024-03-23T12:43:03;101761.03;;;10.33;100.00
73101;BME280;61288;53.446;-2.266;2024-03-23T12:45:28;101759.63;;;10.20;100.00
73101;BME280;61288;53.446;-2.266;2024-03-23T12:47:53;101743.72;;;9.53;100.00
73101;BME280;61288;53.446;-2.266;2024-03-23T12:50:20;101734.25;;;9.51;100.00
73101;BME280;61288;53.446;-2.266;2024-03-23T12:52:46;101718.09;;;8.91;100.00
73101;BME280;61288;53.446;-2.266;2024-03-23T12:55:11;101717.59;;;8.70;100.00
73101;BME280;61288;53.446;-2.266;2024-03-23T12:57:37;101693.81;;;8.46;100.00
73101;BME280;61288;53.446;-2.266;2024-03-23T13:00:02;101689.47;;;8.53;100.00
73101;BME280;61288;53.446;-2.266;2024-03-23T13:02:29;101679.09;;;9.05;100.00
73101;BME280;61288;53.446;-2.266;2024-03-23T13:04:55;101663.84;;;9.77;100.00
73101;BME280;61288;53.446;-2.266;2024-03-23T13:07:22;101681.81;;;9.85;100.00
73101;BME280;61288;53.446;-2.266;2024-03-23T13:09:51;101699.56;;;10.02;100.00
73101;BME280;61288;53.446;-2.266;2024-03-23T13:12:18;101724.25;;;10.19;100.00
73101;BME280;61288;53.446;-2.266;2024-03-23T13:14:45;101715.53;;;10.61;100.00
73101;BME280;61288;53.446;-2.266;2024-03-23T13:17:10;101711.22;;;10.60;100.00
73101;BME280;61288;53.446;-2.266;2024-03-23T13:19:36;101721.94;;;10.46;100.00
73101;BME280;61288;53.446;-2.266;2024-03-23T13:22:01;101735.78;;;10.04;100.00
73101;BME280;61288;53.446;-2.266;2024-03-23T13:24:28;101736.59;;;9.65;100.00
73101;BME280;61288;53.446;-2.266;2024-03-23T13:26:54;101733.31;;;9.08;100.00
73101;BME280;61288;53.446;-2.266;2024-03-23T13:29:20;101708.88;;;8.76;100.00
73101;BME280;61288;53.446;-2.266;2024-03-23T13:31:46;101697.41;;;8.37;100.00
73101;BME280;61288;53.446;-2.266;2024-03-23T13:34:15;101702.84;;;8.19;100.00
73101;BME280;61288;53.446;-2.266;2024-03-23T13:36:41;101697.94;;;8.02;100.00
73101;BME280;61288;53.446;-2.266;2024-03-23T13:39:07;101686.13;;;7.82;100.00
73101;BME280;61288;53.446;-2.266;2024-03-23T13:41:43;101682.03;;;7.67;100.00
73101;BME280;61288;53.446;-2.266;2024-03-23T13:44:13;101668.50;;;7.48;100.00
73101;BME280;61288;53.446;-2.266;2024-03-23T13:46:43;101637.63;;;7.40;100.00
73101;BME280;61288;53.446;-2.266;2024-03-23T13:49:37;101605.94;;;7.32;100.00